Weather observations for the past three days for
Conway Horry County Airport
Imperial (Metric)
Date Time (edt) Wind (mph) Vis. (mi.) Weather Sky Cond. Temperature (ºF) Relative Humidity Wind Chill (°F) Heat Index (°F) Pressure Precipitation (in)
Air Dwpt 6 hour altimeter (in) sea level (mb) 1 hr 3 hr 6 hr
Max. Min.
05 17:55 SW 3 10.00 Fair CLR 89.6 75.2 63% 100 29.8 0.0
05 17:35 Calm 10.00 Fair CLR 89.6 77 67% 103 29.8 0.0
05 17:15 Calm 10.00 Fair CLR 89.6 75.2 63% 100 29.81 0.0
05 16:55 SW 3 10.00 Fair CLR 91.4 73.4 56% 100 29.8 0.0
05 16:35 SW 6 10.00 Fair CLR 95 73.4 50% 105 29.81 0.0
05 16:15 W 6 10.00 Fair CLR 95 73.4 50% 105 29.81 0.0
05 15:55 SW 7 10.00 Fair CLR 95 73.4 50% 105 29.81 0.0
05 13:55 SW 6 10.00 Fair CLR 91.4 73.4 56% 100 29.87 0.0
05 13:35 NW 3 10.00 Fair CLR 91.4 73.4 56% 100 29.88 0.0
05 13:15 SW 7 10.00 Fair CLR 91.4 73.4 56% 100 29.88 0.0
05 12:55 SW 8 10.00 Fair CLR 89.6 73.4 59% 98 29.89 0.0
05 12:35 W 6 10.00 Fair CLR 89.6 75.2 63% 100 29.9 0.0
05 12:15 W 6 10.00 Fair CLR 89.6 77 67% 103 29.91 0.0
05 11:55 W 7 10.00 Fair CLR 87.8 75.2 66% 98 29.92 0.0
05 11:35 SW 8 10.00 Fair CLR 87.8 75.2 66% 98 29.92 0.0
05 11:15 SW 6 10.00 Fair CLR 87.8 75.2 66% 98 29.93 0.0
05 10:55 W 8 10.00 Fair CLR 86 75.2 70% 95 29.94 0.0
05 10:30 W 6 10.00 Fair CLR 86 75.2 70% 95 29.94 0.0
05 10:15 W 8 10.00 Fair CLR 84.2 75.2 74% 92 29.95 0.0
05 09:55 SW 7 10.00 Fair CLR 82.4 77 84% 91 29.95 0.0
05 09:35 W 8 10.00 Fair CLR 80.6 77 89% 87 29.95 0.0
05 09:15 W 7 10.00 Fair CLR 80.6 77 89% 87 29.94 0.0
05 08:55 W 5 10.00 Fair CLR 78.8 77 94% 83 29.94 0.0
05 08:35 SW 6 10.00 Fair CLR 77 77 100% 78 29.95 0.0
05 08:15 SW 5 10.00 Fair CLR 75.2 75.2 100% 73 29.95 0.0
05 07:55 SW 5 10.00 Fair CLR 75.2 75.2 100% 73 29.94 0.0
05 07:35 Calm 10.00 Fair CLR 73.4 73.4 100% 29.94 0.0
05 07:15 Calm 7.00 Fair CLR 73.4 73.4 100% 29.93 0.0
05 06:55 Calm 10.00 Fair CLR 73.4 73.4 100% 29.92 0.0
05 06:35 Calm 10.00 Fair CLR 73.4 73.4 100% 29.92 0.0
05 06:15 Calm 10.00 Fair CLR 73.4 73.4 100% 29.92 0.0
05 05:55 Calm 10.00 Fair CLR 73.4 73.4 100% 29.92 0.0
05 05:35 SW 3 10.00 Fair CLR 73.4 73.4 100% 29.92 0.0
05 05:15 Calm 10.00 Fair CLR 73.4 73.4 100% 29.92 0.0
05 04:55 Calm 10.00 Fair CLR 73.4 73.4 100% 29.93 0.0
05 04:35 Calm 10.00 Fair CLR 73.4 73.4 100% 29.93 0.0
05 04:15 Calm 7.00 Fair CLR 73.4 73.4 100% 29.93 0.0
05 03:55 Calm 10.00 Fair CLR 73.4 73.4 100% 29.93 0.0
05 03:35 Calm 4.00 Fog/Mist CLR 71.6 71.6 100% 29.92 0.0
05 03:15 Calm 10.00 Fair CLR 73.4 73.4 100% 29.93 0.0
05 02:55 Calm 10.00 Fair CLR 73.4 73.4 100% 29.93 0.0
05 02:35 Calm 10.00 Fair CLR 73.4 73.4 100% 29.93 0.0
05 02:15 Calm 10.00 Fair CLR 73.4 73.4 100% 29.94 0.0
05 01:55 Calm 10.00 Fair CLR 73.4 73.4 100% 29.95 0.0
05 01:35 Calm 7.00 Fair CLR 75.2 73.4 94% 74 29.95 0.0
05 01:15 Calm 10.00 Fair CLR 77 75.2 94% 78 29.96 0.0
05 00:55 Calm 10.00 Fair CLR 77 77 100% 78 29.96 0.0
05 00:35 Calm 10.00 Fair CLR 77 77 100% 78 29.97 0.0
05 00:15 SW 3 10.00 Fair CLR 77 77 100% 78 29.97 0.0
04 23:55 S 3 10.00 Fair CLR 77 77 100% 78 29.97 0.0
04 23:35 Calm 10.00 Fair CLR 77 77 100% 78 29.97 0.0
04 23:15 Calm 10.00 Fair CLR 77 77 100% 78 29.98 0.0
04 22:55 S 3 10.00 Fair CLR 77 77 100% 78 29.98 0.0
04 22:35 Calm 10.00 Fair CLR 77 77 100% 78 29.99 0.0
04 22:15 Calm 10.00 Fair CLR 78.8 77 94% 83 29.99 0.0
04 21:55 Calm 10.00 Fair CLR 78.8 77 94% 83 29.98 0.0
04 21:35 S 3 10.00 Fair CLR 78.8 77 94% 83 29.98 0.0
04 21:15 Calm 10.00 Fair CLR 78.8 77 94% 83 29.97 0.0
04 20:35 Calm 10.00 Fair CLR 80.6 75.2 84% 86 29.97 0.0
04 20:15 Calm 10.00 Fair CLR 80.6 73.4 79% 85 29.97 0.0
04 19:55 S 3 10.00 Fair CLR 80.6 73.4 79% 85 29.96 0.0
04 19:35 S 5 10.00 Fair CLR 82.4 73.4 74% 88 29.95 0.0
04 19:15 SE 3 10.00 Fair CLR 84.2 73.4 70% 91 29.95 0.0
04 18:55 S 7 10.00 Fair CLR 86 73.4 66% 93 29.95 0.0
04 18:35 S 7 10.00 Fair CLR 86 75.2 70% 95 29.95 0.0
04 18:15 S 8 10.00 Fair CLR 87.8 73.4 62% 96 29.95 0.0
04 17:55 S 8 10.00 Fair CLR 87.8 73.4 62% 96 29.94 0.0
04 17:35 S 8 10.00 Fair CLR 89.6 75.2 63% 100 29.95 0.0
04 17:15 SE 6 10.00 Fair CLR 89.6 75.2 63% 100 29.95 0.0
04 16:55 S 8 10.00 Fair CLR 89.6 75.2 63% 100 29.95 0.0
04 16:35 SE 7 10.00 Fair CLR 91.4 75.2 59% 103 29.96 0.0
04 16:15 SE 5 10.00 Fair CLR 91.4 73.4 56% 100 29.97 0.0
04 15:55 SE 7 10.00 Fair CLR 91.4 75.2 59% 103 29.98 0.0
04 15:35 SE 5 10.00 Fair CLR 91.4 73.4 56% 100 29.98 0.0
04 15:15 SE 6 10.00 Fair CLR 91.4 75.2 59% 103 29.98 0.0
04 14:55 S 8 10.00 Fair CLR 91.4 75.2 59% 103 29.99 0.0
04 14:35 E 7 10.00 Fair CLR 91.4 75.2 59% 103 30 0.0
04 14:15 SE 6 10.00 Partly Cloudy SCT048 SCT060 SCT070 87.8 75.2 66% 98 30.01 0.0
04 13:55 S 6 10.00 Partly Cloudy SCT046 SCT050 91.4 73.4 56% 100 30.01 0.0
04 13:35 Calm 10.00 Partly Cloudy SCT050 91.4 73.4 56% 100 30.01 0.0
04 13:15 Calm 10.00 Partly Cloudy SCT050 89.6 71.6 55% 96 30.02 0.0
04 12:55 SW 3 10.00 Partly Cloudy SCT049 87.8 73.4 62% 96 30.03 0.0
04 12:35 W 3 10.00 Partly Cloudy SCT049 89.6 73.4 59% 98 30.04 0.0
04 12:15 W 5 10.00 Partly Cloudy SCT034 SCT049 87.8 73.4 62% 96 30.04 0.0
04 11:55 S 6 10.00 Partly Cloudy SCT034 SCT043 SCT049 87.8 73.4 62% 96 30.04 0.0
04 11:35 S 3 10.00 Partly Cloudy SCT031 SCT041 89.6 73.4 59% 98 30.05 0.0
04 11:15 S 3 10.00 Partly Cloudy SCT031 SCT038 87.8 73.4 62% 96 30.05 0.0
04 10:55 S 5 10.00 Fair CLR 86 73.4 66% 93 30.05 0.0
04 10:35 Calm 10.00 Fair CLR 86 75.2 70% 95 30.05 0.0
04 10:15 SW 5 10.00 Fair CLR 84.2 75.2 74% 92 30.05 0.0
04 09:55 SW 5 10.00 Fair CLR 84.2 75.2 74% 92 30.05 0.0
04 09:35 W 5 10.00 Fair CLR 84.2 75.2 74% 92 30.04 0.0
04 09:15 S 3 10.00 Fair CLR 82.4 77 84% 91 30.05 0.0
04 08:55 Calm 10.00 Fair CLR 80.6 77 89% 87 30.04 0.0
04 08:35 Calm 10.00 Fair CLR 78.8 77 94% 83 30.04 0.0
04 08:15 Calm 10.00 Fair CLR 75.2 73.4 94% 74 30.04 0.0
04 07:55 Calm 10.00 Fair CLR 73.4 71.6 94% 30.05 0.0
04 07:35 Calm 10.00 Fair CLR 71.6 71.6 100% 30.04 0.0
04 07:15 Calm 10.00 Fair CLR 69.8 69.8 100% 30.04 0.0
04 06:55 Calm 10.00 Fair CLR 69.8 69.8 100% 30.03 0.0
04 06:35 Calm 10.00 Fair CLR 69.8 69.8 100% 30.03 0.0
04 06:15 Calm 10.00 Fair CLR 69.8 69.8 100% 30.02 0.0
04 05:55 Calm 3.00 Fog/Mist CLR 69.8 69.8 100% 30.02 0.0
04 05:35 Calm 10.00 Fair CLR 69.8 69.8 100% 30.02 0.0
04 05:15 Calm 10.00 Fair CLR 69.8 69.8 100% 30.01 0.0
04 04:55 Calm 10.00 Fair CLR 69.8 69.8 100% 30.01 0.0
04 04:35 Calm 3.00 Fog/Mist CLR 69.8 69.8 100% 30 0.0
04 04:15 Calm 10.00 Fair CLR 71.6 71.6 100% 30 0.0
04 03:55 Calm 10.00 Fair CLR 71.6 71.6 100% 30 0.0
04 03:35 Calm 10.00 Fair CLR 71.6 71.6 100% 30.01 0.0
04 03:15 Calm 10.00 Fair CLR 71.6 71.6 100% 30.01 0.0
04 02:55 Calm 5.00 Fog/Mist CLR 71.6 71.6 100% 30.01 0.0
04 02:35 Calm 1.25 Fog/Mist VV007 71.6 71.6 100% 30.02 0.0
04 02:15 Calm 5.00 Fog/Mist CLR 71.6 71.6 100% 30.02 0.0
04 01:55 Calm 2.50 Fog/Mist CLR 71.6 71.6 100% 30.03 0.0
04 01:35 Calm 10.00 Fair CLR 73.4 73.4 100% 30.04 0.0
04 01:15 Calm 10.00 Fair CLR 71.6 71.6 100% 30.05 0.0
04 00:55 Calm 3.00 Fog/Mist CLR 73.4 73.4 100% 30.05 0.0
04 00:35 Calm 10.00 Fair CLR 73.4 73.4 100% 30.05 0.0
04 00:15 Calm 10.00 Fair CLR 73.4 73.4 100% 30.05 0.0
03 23:55 Calm 1.50 Fog/Mist VV007 73.4 73.4 100% 30.06 0.0
03 23:35 Calm 10.00 Fair CLR 73.4 73.4 100% 30.05 0.0
03 23:15 Calm 10.00 Fair CLR 73.4 73.4 100% 30.06 0.0
03 22:55 Calm 10.00 Fair CLR 73.4 73.4 100% 30.06 0.0
03 22:35 Calm 10.00 Fair CLR 73.4 73.4 100% 30.06 0.0
03 22:15 Calm 10.00 Fair CLR 75.2 75.2 100% 73 30.06 0.0
03 21:55 Calm 10.00 Fair CLR 77 77 100% 78 30.06 0.0
03 21:35 Calm 10.00 Fair CLR 77 77 100% 78 30.05 0.0
03 21:15 Calm 10.00 Fair CLR 77 77 100% 78 30.04 0.0
03 20:55 Calm 10.00 Fair CLR 78.8 77 94% 83 30.03 0.0
03 20:35 Calm 10.00 Fair CLR 78.8 77 94% 83 30.02 0.0
03 20:15 Calm 10.00 Fair CLR 80.6 77 89% 87 30.01 0.0
03 19:55 Calm 10.00 Fair CLR 80.6 77 89% 87 30.01 0.0
03 19:35 SE 3 10.00 Fair CLR 82.4 75.2 79% 89 30.01 0.0
03 19:15 SE 3 10.00 Fair CLR 82.4 75.2 79% 89 30.02 0.0
03 18:55 SE 6 10.00 Fair CLR 84.2 73.4 70% 91 30.02 0.0
03 18:35 SE 5 10.00 Fair CLR 86 73.4 66% 93 30.02 0.0
03 18:15 SE 7 10.00 Fair CLR 86 73.4 66% 93 30.02 0.0
03 17:55 S 7 10.00 Fair CLR 86 73.4 66% 93 30.02 0.0
03 17:35 SE 7 10.00 Fair CLR 87.8 73.4 62% 96 30.02 0.0
03 17:15 SE 8 10.00 Fair CLR 87.8 73.4 62% 96 30.02 0.0
03 16:55 SE 6 10.00 Fair CLR 89.6 73.4 59% 98 30.02 0.0
03 16:35 SE 8 10.00 Fair CLR 89.6 71.6 55% 96 30.03 0.0
03 16:15 S 7 10.00 Fair CLR 89.6 71.6 55% 96 30.03 0.0
03 15:55 S 6 10.00 Fair CLR 89.6 69.8 52% 95 30.03 0.0
03 15:35 SE 7 10.00 Fair CLR 89.6 69.8 52% 95 30.04 0.0
03 15:15 SE 8 10.00 Fair CLR 89.6 71.6 55% 96 30.04 0.0
03 14:55 E 6 10.00 Fair CLR 89.6 69.8 52% 95 30.04 0.0
03 14:35 S 7 10.00 Fair CLR 89.6 69.8 52% 95 30.04 0.0
03 14:15 SE 9 10.00 Fair CLR 91.4 69.8 49% 97 30.05 0.0
03 13:55 SE 7 10.00 Fair CLR 89.6 71.6 55% 96 30.05 0.0
03 13:35 E 5 10.00 Fair CLR 91.4 73.4 56% 100 30.05 0.0
03 13:15 Calm 10.00 Fair CLR 89.6 73.4 59% 98 30.05 0.0
03 12:55 E 6 10.00 Fair CLR 89.6 73.4 59% 98 30.06 0.0
03 12:35 SE 3 10.00 Fair CLR 89.6 73.4 59% 98 30.07 0.0
03 12:15 NE 6 10.00 Fair CLR 89.6 71.6 55% 96 30.07 0.0
03 11:55 SE 3 10.00 Fair CLR 89.6 69.8 52% 95 30.08 0.0
03 11:35 Calm 10.00 Fair CLR 89.6 71.6 55% 96 30.08 0.0
03 11:15 S 5 10.00 Fair CLR 87.8 73.4 62% 96 30.08 0.0
03 10:55 Calm 10.00 Fair CLR 86 73.4 66% 93 30.08 0.0
03 10:35 Calm 10.00 Fair CLR 86 73.4 66% 93 30.08 0.0
03 10:15 Calm 10.00 Fair CLR 84.2 73.4 70% 91 30.08 0.0
03 09:55 Calm 10.00 Fair CLR 82.4 73.4 74% 88 30.08 0.0
03 09:35 Calm 10.00 Fair CLR 82.4 73.4 74% 88 30.08 0.0
03 09:15 Calm 10.00 Fair CLR 80.6 77 89% 87 30.08 0.0
03 08:55 Calm 10.00 Fair CLR 78.8 77 94% 83 30.08 0.0
03 08:35 Calm 10.00 Fair CLR 77 75.2 94% 78 30.08 0.0
03 08:15 Calm 10.00 Fair CLR 73.4 73.4 100% 30.08 0.0
03 07:55 Calm 10.00 Fair CLR 71.6 71.6 100% 30.08 0.0
03 07:35 Calm 7.00 Fair CLR 71.6 71.6 100% 30.08 0.0
03 07:15 Calm 3.00 Fog/Mist CLR 69.8 69.8 100% 30.07 0.0
03 06:55 Calm 10.00 Fair CLR 69.8 69.8 100% 30.06 0.0
03 06:35 Calm 4.00 Fog/Mist CLR 69.8 69.8 100% 30.06 0.0
03 06:15 Calm 10.00 Fair CLR 69.8 69.8 100% 30.05 0.0
03 05:55 Calm 4.00 Fog/Mist CLR 69.8 69.8 100% 30.05 0.0
03 05:35 Calm 10.00 Fair CLR 71.6 71.6 100% 30.05 0.0
03 05:15 Calm 10.00 Fair CLR 71.6 71.6 100% 30.04 0.0
03 04:55 Calm 10.00 Fair CLR 71.6 71.6 100% 30.04 0.0
03 04:35 Calm 1.00 Fog/Mist VV007 69.8 69.8 100% 30.04 0.0
03 04:15 Calm 10.00 Fair CLR 71.6 71.6 100% 30.04 0.0
03 03:55 Calm 0.50 Fog VV005 71.6 71.6 100% 30.04 0.0
03 03:35 Calm 10.00 Fair CLR 71.6 71.6 100% 30.03 0.0
03 03:15 Calm 3.00 Fog/Mist CLR 71.6 71.6 100% 30.03 0.0
03 02:55 Calm 3.00 Fog/Mist CLR 71.6 71.6 100% 30.03 0.0
03 02:35 Calm 10.00 Fair CLR 71.6 71.6 100% 30.03 0.0
03 02:15 Calm 10.00 Fair CLR 73.4 73.4 100% 30.04 0.0
03 01:55 Calm 10.00 Fair CLR 73.4 73.4 100% 30.04 0.0
03 01:35 Calm 10.00 Fair CLR 73.4 73.4 100% 30.04 0.0
03 01:15 Calm 10.00 Fair CLR 73.4 73.4 100% 30.04 0.0
03 00:55 Calm 10.00 Fair CLR 73.4 73.4 100% 30.04 0.0
03 00:35 Calm 10.00 Fair CLR 73.4 73.4 100% 30.03 0.0
03 00:15 Calm 10.00 Fair CLR 73.4 73.4 100% 30.03 0.0
02 23:55 Calm 10.00 Fair CLR 75.2 73.4 94% 74 30.03 0.0
02 23:35 Calm 10.00 Fair CLR 73.4 73.4 100% 30.03 0.0
02 23:15 Calm 10.00 Fair CLR 75.2 73.4 94% 74 30.05 0.0
02 22:55 Calm 10.00 Fair CLR 73.4 73.4 100% 30.06 0.0
02 22:35 Calm 10.00 Fair CLR 75.2 73.4 94% 74 30.07 0.0
02 22:15 Calm 10.00 Fair CLR 77 73.4 89% 78 30.07 0.0
02 21:55 Calm 10.00 Fair CLR 77 73.4 89% 78 30.07 0.0
02 21:35 Calm 10.00 Fair CLR 78.8 73.4 84% 82 30.07 0.0
02 21:15 Calm 10.00 Fair CLR 78.8 71.6 79% 82 30.06 0.0
02 20:55 Calm 10.00 Fair CLR 78.8 71.6 79% 82 30.05 0.0
02 20:35 Calm 10.00 Fair CLR 78.8 71.6 79% 82 30.04 0.0
02 20:15 Calm 10.00 Fair CLR 80.6 71.6 74% 85 30.04 0.0
02 19:55 Calm 10.00 Fair CLR 82.4 71.6 70% 87 30.03 0.0
02 19:35 SE 3 10.00 Fair CLR 82.4 71.6 70% 87 30.03 0.0
02 19:15 S 5 10.00 Fair CLR 84.2 71.6 66% 90 30.02 0.0
02 18:55 S 3 10.00 Fair CLR 86 71.6 62% 92 30.03 0.0
02 18:35 SE 5 10.00 Fair CLR 87.8 71.6 59% 94 30.02 0.0
02 18:15 S 6 10.00 Fair CLR 89.6 73.4 59% 98 30.02 0.0
Date Time (edt) Wind (mph) Vis. (mi.) Weather Sky Cond. Air Dwpt Max. Min. Relative Humidity Wind Chill (°F) Heat Index (°F) altimeter (in) sea level (mb) 1 hr 3 hr 6 hr
6 hour
Temperature (ºF) Pressure Precipitation (in)